sensor_id;sensor_type;location;lat;lon;timestamp;temperature;humidity
37906;DHT22;23739;51.448;6.674;2022-11-20T00:01:18;-0.90;99.90
37906;DHT22;23739;51.448;6.674;2022-11-20T00:03:45;-0.90;99.90
37906;DHT22;23739;51.448;6.674;2022-11-20T00:09:42;-1.00;99.90
37906;DHT22;23739;51.448;6.674;2022-11-20T00:25:29;-1.10;99.90
37906;DHT22;23739;51.448;6.674;2022-11-20T00:27:55;-1.10;99.90
37906;DHT22;23739;51.448;6.674;2022-11-20T00:30:23;-1.10;99.90
37906;DHT22;23739;51.448;6.674;2022-11-20T00:32:49;-1.10;99.90
37906;DHT22;23739;51.448;6.674;2022-11-20T00:35:28;-1.10;99.90
37906;DHT22;23739;51.448;6.674;2022-11-20T00:37:53;-1.10;99.90
37906;DHT22;23739;51.448;6.674;2022-11-20T00:40:19;-1.10;99.90
37906;DHT22;23739;51.448;6.674;2022-11-20T00:46:37;-1.10;99.90
37906;DHT22;23739;51.448;6.674;2022-11-20T00:49:03;-1.10;99.90
37906;DHT22;23739;51.448;6.674;2022-11-20T00:51:29;-1.20;99.90
37906;DHT22;23739;51.448;6.674;2022-11-20T00:53:56;-1.10;99.90
37906;DHT22;23739;51.448;6.674;2022-11-20T00:56:22;-1.10;99.90
37906;DHT22;23739;51.448;6.674;2022-11-20T00:59:13;-1.10;99.90
37906;DHT22;23739;51.448;6.674;2022-11-20T01:01:39;-1.10;99.90
37906;DHT22;23739;51.448;6.674;2022-11-20T01:04:05;-1.10;99.90
37906;DHT22;23739;51.448;6.674;2022-11-20T01:06:33;-1.10;99.90
37906;DHT22;23739;51.448;6.674;2022-11-20T01:09:02;-1.00;99.90
37906;DHT22;23739;51.448;6.674;2022-11-20T01:11:31;-1.10;99.90
37906;DHT22;23739;51.448;6.674;2022-11-20T01:13:58;-1.10;99.90
37906;DHT22;23739;51.448;6.674;2022-11-20T01:16:36;-1.10;99.90
37906;DHT22;23739;51.448;6.674;2022-11-20T01:19:05;-1.10;99.90
37906;DHT22;23739;51.448;6.674;2022-11-20T01:21:36;-1.10;99.90
37906;DHT22;23739;51.448;6.674;2022-11-20T01:24:04;-1.10;99.90
37906;DHT22;23739;51.448;6.674;2022-11-20T01:26:33;-1.00;99.90
37906;DHT22;23739;51.448;6.674;2022-11-20T01:28:59;-1.00;99.90
37906;DHT22;23739;51.448;6.674;2022-11-20T01:31:31;-1.00;99.90
37906;DHT22;23739;51.448;6.674;2022-11-20T01:34:00;-1.00;99.90
37906;DHT22;23739;51.448;6.674;2022-11-20T01:36:28;-0.90;99.90
37906;DHT22;23739;51.448;6.674;2022-11-20T01:38:56;-0.90;99.90
37906;DHT22;23739;51.448;6.674;2022-11-20T01:41:23;-0.80;99.90
37906;DHT22;23739;51.448;6.674;2022-11-20T01:44:10;-0.70;99.90
37906;DHT22;23739;51.448;6.674;2022-11-20T01:46:38;-0.60;99.90
37906;DHT22;23739;51.448;6.674;2022-11-20T01:49:11;-0.50;99.90
37906;DHT22;23739;51.448;6.674;2022-11-20T01:54:40;-0.40;99.90
37906;DHT22;23739;51.448;6.674;2022-11-20T01:57:09;-0.40;99.90
37906;DHT22;23739;51.448;6.674;2022-11-20T01:59:44;-0.30;99.90
37906;DHT22;23739;51.448;6.674;2022-11-20T02:02:14;-0.20;99.90
37906;DHT22;23739;51.448;6.674;2022-11-20T02:04:40;-0.30;99.90
37906;DHT22;23739;51.448;6.674;2022-11-20T02:07:05;-0.30;99.90
37906;DHT22;23739;51.448;6.674;2022-11-20T02:09:31;-0.30;99.90
37906;DHT22;23739;51.448;6.674;2022-11-20T02:11:58;-0.20;99.90
37906;DHT22;23739;51.448;6.674;2022-11-20T02:14:24;-0.10;99.90
37906;DHT22;23739;51.448;6.674;2022-11-20T02:16:50;-0.10;99.90
37906;DHT22;23739;51.448;6.674;2022-11-20T02:19:27;-0.10;99.90
37906;DHT22;23739;51.448;6.674;2022-11-20T02:22:05;-0.10;99.90
37906;DHT22;23739;51.448;6.674;2022-11-20T02:24:31;-0.10;99.90
37906;DHT22;23739;51.448;6.674;2022-11-20T02:27:03;0.00;99.90
37906;DHT22;23739;51.448;6.674;2022-11-20T02:32:22;0.10;99.90
37906;DHT22;23739;51.448;6.674;2022-11-20T02:34:48;0.00;99.90
37906;DHT22;23739;51.448;6.674;2022-11-20T02:37:14;0.10;99.90
37906;DHT22;23739;51.448;6.674;2022-11-20T02:39:41;0.00;99.90
37906;DHT22;23739;51.448;6.674;2022-11-20T02:42:08;0.20;99.90
37906;DHT22;23739;51.448;6.674;2022-11-20T02:44:34;0.20;99.90
37906;DHT22;23739;51.448;6.674;2022-11-20T02:47:00;0.20;99.90
37906;DHT22;23739;51.448;6.674;2022-11-20T02:49:26;0.20;99.90
37906;DHT22;23739;51.448;6.674;2022-11-20T02:51:51;0.30;99.90
37906;DHT22;23739;51.448;6.674;2022-11-20T02:54:17;0.30;99.90
37906;DHT22;23739;51.448;6.674;2022-11-20T02:56:43;0.30;99.90
37906;DHT22;23739;51.448;6.674;2022-11-20T02:59:09;0.30;99.90
37906;DHT22;23739;51.448;6.674;2022-11-20T03:01:35;0.40;99.90
37906;DHT22;23739;51.448;6.674;2022-11-20T03:04:01;0.40;99.90
37906;DHT22;23739;51.448;6.674;2022-11-20T03:06:27;0.40;99.90
37906;DHT22;23739;51.448;6.674;2022-11-20T03:08:53;0.50;99.90
37906;DHT22;23739;51.448;6.674;2022-11-20T03:11:20;0.50;99.90
37906;DHT22;23739;51.448;6.674;2022-11-20T03:13:45;0.50;99.90
37906;DHT22;23739;51.448;6.674;2022-11-20T03:16:16;0.40;99.90
37906;DHT22;23739;51.448;6.674;2022-11-20T03:18:43;0.30;99.90
37906;DHT22;23739;51.448;6.674;2022-11-20T03:21:10;0.30;99.90
37906;DHT22;23739;51.448;6.674;2022-11-20T03:23:37;0.50;99.90
37906;DHT22;23739;51.448;6.674;2022-11-20T03:26:30;0.30;99.90
37906;DHT22;23739;51.448;6.674;2022-11-20T03:28:58;0.20;99.90
37906;DHT22;23739;51.448;6.674;2022-11-20T03:31:39;0.30;99.90
37906;DHT22;23739;51.448;6.674;2022-11-20T03:34:09;0.40;99.90
37906;DHT22;23739;51.448;6.674;2022-11-20T03:36:38;0.30;99.90
37906;DHT22;23739;51.448;6.674;2022-11-20T03:39:04;0.20;99.90
37906;DHT22;23739;51.448;6.674;2022-11-20T03:41:31;0.10;99.90
37906;DHT22;23739;51.448;6.674;2022-11-20T03:44:02;0.20;99.90
37906;DHT22;23739;51.448;6.674;2022-11-20T03:46:29;0.20;99.90
37906;DHT22;23739;51.448;6.674;2022-11-20T03:48:55;0.20;99.90
37906;DHT22;23739;51.448;6.674;2022-11-20T03:51:23;0.10;99.90
37906;DHT22;23739;51.448;6.674;2022-11-20T03:53:51;0.20;99.90
37906;DHT22;23739;51.448;6.674;2022-11-20T03:56:20;0.30;99.90
37906;DHT22;23739;51.448;6.674;2022-11-20T03:58:47;0.30;99.90
37906;DHT22;23739;51.448;6.674;2022-11-20T04:01:16;0.30;99.90
37906;DHT22;23739;51.448;6.674;2022-11-20T04:03:43;0.50;99.90
37906;DHT22;23739;51.448;6.674;2022-11-20T04:06:18;0.50;99.90
37906;DHT22;23739;51.448;6.674;2022-11-20T04:08:44;0.60;99.90
37906;DHT22;23739;51.448;6.674;2022-11-20T04:11:15;0.60;99.90
37906;DHT22;23739;51.448;6.674;2022-11-20T04:13:42;0.50;99.90
37906;DHT22;23739;51.448;6.674;2022-11-20T04:16:11;0.70;99.90
37906;DHT22;23739;51.448;6.674;2022-11-20T04:18:37;0.80;99.90
37906;DHT22;23739;51.448;6.674;2022-11-20T04:21:04;0.70;99.90
37906;DHT22;23739;51.448;6.674;2022-11-20T04:23:30;0.50;99.90
37906;DHT22;23739;51.448;6.674;2022-11-20T04:26:08;0.60;99.90
37906;DHT22;23739;51.448;6.674;2022-11-20T04:28:34;0.70;99.90
37906;DHT22;23739;51.448;6.674;2022-11-20T04:31:11;0.70;99.90
37906;DHT22;23739;51.448;6.674;2022-11-20T04:33:38;0.70;99.90
37906;DHT22;23739;51.448;6.674;2022-11-20T04:36:16;0.60;99.90
37906;DHT22;23739;51.448;6.674;2022-11-20T04:38:42;0.70;99.90
37906;DHT22;23739;51.448;6.674;2022-11-20T04:41:15;0.70;99.90
37906;DHT22;23739;51.448;6.674;2022-11-20T04:43:41;0.60;99.90
37906;DHT22;23739;51.448;6.674;2022-11-20T04:46:06;0.60;99.90
37906;DHT22;23739;51.448;6.674;2022-11-20T04:48:32;0.50;99.90
37906;DHT22;23739;51.448;6.674;2022-11-20T04:51:03;0.40;99.90
37906;DHT22;23739;51.448;6.674;2022-11-20T04:53:29;0.30;99.90
37906;DHT22;23739;51.448;6.674;2022-11-20T04:56:03;0.40;99.90
37906;DHT22;23739;51.448;6.674;2022-11-20T04:58:29;0.20;99.90
37906;DHT22;23739;51.448;6.674;2022-11-20T05:01:07;0.20;99.90
37906;DHT22;23739;51.448;6.674;2022-11-20T05:03:34;0.10;99.90
37906;DHT22;23739;51.448;6.674;2022-11-20T05:06:01;0.20;99.90
37906;DHT22;23739;51.448;6.674;2022-11-20T05:08:29;0.10;99.90
37906;DHT22;23739;51.448;6.674;2022-11-20T05:11:00;0.10;99.90
37906;DHT22;23739;51.448;6.674;2022-11-20T05:13:26;0.20;99.90
37906;DHT22;23739;51.448;6.674;2022-11-20T05:15:52;0.20;99.90
37906;DHT22;23739;51.448;6.674;2022-11-20T05:18:18;0.30;99.90
37906;DHT22;23739;51.448;6.674;2022-11-20T05:20:44;0.30;99.90
37906;DHT22;23739;51.448;6.674;2022-11-20T05:23:09;0.30;99.90
37906;DHT22;23739;51.448;6.674;2022-11-20T05:25:35;0.30;99.90
37906;DHT22;23739;51.448;6.674;2022-11-20T05:28:01;0.40;99.90
37906;DHT22;23739;51.448;6.674;2022-11-20T05:30:26;0.50;99.90
37906;DHT22;23739;51.448;6.674;2022-11-20T05:32:52;0.50;99.90
37906;DHT22;23739;51.448;6.674;2022-11-20T05:35:18;0.60;99.90
37906;DHT22;23739;51.448;6.674;2022-11-20T05:37:44;0.60;99.90
37906;DHT22;23739;51.448;6.674;2022-11-20T05:40:10;0.70;99.90
37906;DHT22;23739;51.448;6.674;2022-11-20T05:42:36;0.70;99.90
37906;DHT22;23739;51.448;6.674;2022-11-20T05:45:03;0.70;99.90
37906;DHT22;23739;51.448;6.674;2022-11-20T05:47:33;0.70;99.90
37906;DHT22;23739;51.448;6.674;2022-11-20T05:50:00;0.70;99.90
37906;DHT22;23739;51.448;6.674;2022-11-20T05:52:28;0.80;99.90
37906;DHT22;23739;51.448;6.674;2022-11-20T05:54:55;0.80;99.90
37906;DHT22;23739;51.448;6.674;2022-11-20T05:57:21;0.80;99.90
37906;DHT22;23739;51.448;6.674;2022-11-20T05:59:46;0.90;99.90
37906;DHT22;23739;51.448;6.674;2022-11-20T06:02:12;0.90;99.90
37906;DHT22;23739;51.448;6.674;2022-11-20T06:04:38;0.90;99.90
37906;DHT22;23739;51.448;6.674;2022-11-20T06:07:05;0.90;99.90
37906;DHT22;23739;51.448;6.674;2022-11-20T06:09:31;0.90;99.90
37906;DHT22;23739;51.448;6.674;2022-11-20T06:11:57;0.90;99.90
37906;DHT22;23739;51.448;6.674;2022-11-20T06:14:23;1.00;99.90
37906;DHT22;23739;51.448;6.674;2022-11-20T06:16:48;1.00;99.90
37906;DHT22;23739;51.448;6.674;2022-11-20T06:19:14;1.00;99.90
37906;DHT22;23739;51.448;6.674;2022-11-20T06:21:41;1.00;99.90
37906;DHT22;23739;51.448;6.674;2022-11-20T06:24:08;1.00;99.90
37906;DHT22;23739;51.448;6.674;2022-11-20T06:26:34;0.90;99.90
37906;DHT22;23739;51.448;6.674;2022-11-20T06:29:00;1.00;99.90
37906;DHT22;23739;51.448;6.674;2022-11-20T06:31:26;0.90;99.90
37906;DHT22;23739;51.448;6.674;2022-11-20T06:33:52;0.90;99.90
37906;DHT22;23739;51.448;6.674;2022-11-20T06:36:20;0.90;99.90
37906;DHT22;23739;51.448;6.674;2022-11-20T06:38:47;1.00;99.90
37906;DHT22;23739;51.448;6.674;2022-11-20T06:41:15;1.00;99.90
37906;DHT22;23739;51.448;6.674;2022-11-20T06:43:42;1.00;99.90
37906;DHT22;23739;51.448;6.674;2022-11-20T06:46:09;0.90;99.90
37906;DHT22;23739;51.448;6.674;2022-11-20T06:48:35;1.00;99.90
37906;DHT22;23739;51.448;6.674;2022-11-20T06:51:03;1.00;99.90
37906;DHT22;23739;51.448;6.674;2022-11-20T06:53:29;0.90;99.90
37906;DHT22;23739;51.448;6.674;2022-11-20T06:55:56;1.00;99.90
37906;DHT22;23739;51.448;6.674;2022-11-20T06:58:30;1.00;99.90
37906;DHT22;23739;51.448;6.674;2022-11-20T07:01:04;0.90;99.90
37906;DHT22;23739;51.448;6.674;2022-11-20T07:03:30;0.90;99.90
37906;DHT22;23739;51.448;6.674;2022-11-20T07:05:57;1.00;99.90
37906;DHT22;23739;51.448;6.674;2022-11-20T07:08:24;1.10;99.90
37906;DHT22;23739;51.448;6.674;2022-11-20T07:10:50;1.20;99.90
37906;DHT22;23739;51.448;6.674;2022-11-20T07:13:16;1.10;99.90
37906;DHT22;23739;51.448;6.674;2022-11-20T07:15:42;1.20;99.90
37906;DHT22;23739;51.448;6.674;2022-11-20T07:18:07;1.20;99.90
37906;DHT22;23739;51.448;6.674;2022-11-20T07:20:33;1.20;99.90
37906;DHT22;23739;51.448;6.674;2022-11-20T07:22:59;1.30;99.90
37906;DHT22;23739;51.448;6.674;2022-11-20T07:25:27;1.30;99.90
37906;DHT22;23739;51.448;6.674;2022-11-20T07:27:56;1.30;99.90
37906;DHT22;23739;51.448;6.674;2022-11-20T07:30:22;1.20;99.90
37906;DHT22;23739;51.448;6.674;2022-11-20T07:32:51;1.30;99.90
37906;DHT22;23739;51.448;6.674;2022-11-20T07:35:18;1.30;99.90
37906;DHT22;23739;51.448;6.674;2022-11-20T07:37:44;1.30;99.90
37906;DHT22;23739;51.448;6.674;2022-11-20T07:40:12;1.30;99.90
37906;DHT22;23739;51.448;6.674;2022-11-20T07:42:38;1.30;99.90
37906;DHT22;23739;51.448;6.674;2022-11-20T07:45:04;1.50;99.90
37906;DHT22;23739;51.448;6.674;2022-11-20T07:47:38;1.40;99.90
37906;DHT22;23739;51.448;6.674;2022-11-20T07:50:04;1.40;99.90
37906;DHT22;23739;51.448;6.674;2022-11-20T07:52:29;1.40;99.90
37906;DHT22;23739;51.448;6.674;2022-11-20T07:54:55;1.50;99.90
37906;DHT22;23739;51.448;6.674;2022-11-20T07:57:21;1.50;99.90
37906;DHT22;23739;51.448;6.674;2022-11-20T08:03:05;1.60;99.90
37906;DHT22;23739;51.448;6.674;2022-11-20T08:05:31;1.60;99.90
37906;DHT22;23739;51.448;6.674;2022-11-20T08:07:57;1.60;99.90
37906;DHT22;23739;51.448;6.674;2022-11-20T08:10:23;1.70;99.90
37906;DHT22;23739;51.448;6.674;2022-11-20T08:12:51;1.80;99.90
37906;DHT22;23739;51.448;6.674;2022-11-20T08:15:37;1.80;99.90
37906;DHT22;23739;51.448;6.674;2022-11-20T08:18:11;1.70;99.90
37906;DHT22;23739;51.448;6.674;2022-11-20T08:20:37;1.80;99.90
37906;DHT22;23739;51.448;6.674;2022-11-20T08:23:05;1.90;99.90
37906;DHT22;23739;51.448;6.674;2022-11-20T08:25:32;1.80;99.90
37906;DHT22;23739;51.448;6.674;2022-11-20T08:27:59;1.90;99.90
37906;DHT22;23739;51.448;6.674;2022-11-20T08:30:25;1.90;99.90
37906;DHT22;23739;51.448;6.674;2022-11-20T08:32:51;1.90;99.90
37906;DHT22;23739;51.448;6.674;2022-11-20T08:35:17;2.00;99.90
37906;DHT22;23739;51.448;6.674;2022-11-20T08:37:46;2.00;99.90
37906;DHT22;23739;51.448;6.674;2022-11-20T08:40:12;2.00;99.90
37906;DHT22;23739;51.448;6.674;2022-11-20T08:42:49;2.10;99.90
37906;DHT22;23739;51.448;6.674;2022-11-20T08:45:16;2.20;99.90
37906;DHT22;23739;51.448;6.674;2022-11-20T08:47:43;2.30;99.90
37906;DHT22;23739;51.448;6.674;2022-11-20T08:50:10;2.50;99.90
37906;DHT22;23739;51.448;6.674;2022-11-20T08:52:37;2.50;99.90
37906;DHT22;23739;51.448;6.674;2022-11-20T08:55:04;2.50;99.90
37906;DHT22;23739;51.448;6.674;2022-11-20T08:57:37;2.60;99.90
37906;DHT22;23739;51.448;6.674;2022-11-20T09:00:05;2.70;99.90
37906;DHT22;23739;51.448;6.674;2022-11-20T09:02:31;2.60;99.90
37906;DHT22;23739;51.448;6.674;2022-11-20T09:04:58;2.60;99.90
37906;DHT22;23739;51.448;6.674;2022-11-20T09:07:24;2.70;99.90
37906;DHT22;23739;51.448;6.674;2022-11-20T09:09:50;2.80;99.90
37906;DHT22;23739;51.448;6.674;2022-11-20T09:12:15;3.30;99.90
37906;DHT22;23739;51.448;6.674;2022-11-20T09:14:41;3.60;99.90
37906;DHT22;23739;51.448;6.674;2022-11-20T09:17:07;3.60;99.90
37906;DHT22;23739;51.448;6.674;2022-11-20T09:19:33;3.50;99.90
37906;DHT22;23739;51.448;6.674;2022-11-20T09:21:59;3.40;99.90
37906;DHT22;23739;51.448;6.674;2022-11-20T09:24:26;3.40;99.90
37906;DHT22;23739;51.448;6.674;2022-11-20T09:26:51;3.60;99.90
37906;DHT22;23739;51.448;6.674;2022-11-20T09:29:17;3.70;99.90
37906;DHT22;23739;51.448;6.674;2022-11-20T09:31:43;3.50;99.90
37906;DHT22;23739;51.448;6.674;2022-11-20T09:34:09;3.20;99.90
37906;DHT22;23739;51.448;6.674;2022-11-20T09:36:35;3.20;99.90
37906;DHT22;23739;51.448;6.674;2022-11-20T09:39:01;3.10;99.90
37906;DHT22;23739;51.448;6.674;2022-11-20T09:54:39;3.40;99.90
37906;DHT22;23739;51.448;6.674;2022-11-20T09:57:20;3.60;99.90
37906;DHT22;23739;51.448;6.674;2022-11-20T09:59:53;3.80;99.90
37906;DHT22;23739;51.448;6.674;2022-11-20T10:02:35;3.60;99.90
37906;DHT22;23739;51.448;6.674;2022-11-20T10:05:23;3.60;99.90
37906;DHT22;23739;51.448;6.674;2022-11-20T10:10:42;3.70;99.90
37906;DHT22;23739;51.448;6.674;2022-11-20T10:21:23;4.00;99.90
37906;DHT22;23739;51.448;6.674;2022-11-20T10:29:24;4.30;99.90
37906;DHT22;23739;51.448;6.674;2022-11-20T10:32:35;4.30;99.90
37906;DHT22;23739;51.448;6.674;2022-11-20T10:37:59;4.50;99.90
37906;DHT22;23739;51.448;6.674;2022-11-20T10:40:34;4.50;99.90
37906;DHT22;23739;51.448;6.674;2022-11-20T10:45:53;4.40;99.90
37906;DHT22;23739;51.448;6.674;2022-11-20T10:48:22;4.50;99.90
37906;DHT22;23739;51.448;6.674;2022-11-20T10:51:04;4.50;99.90
37906;DHT22;23739;51.448;6.674;2022-11-20T10:56:30;4.60;99.90
37906;DHT22;23739;51.448;6.674;2022-11-20T11:01:49;4.60;99.90
37906;DHT22;23739;51.448;6.674;2022-11-20T11:04:28;4.70;99.90
37906;DHT22;23739;51.448;6.674;2022-11-20T11:07:02;7.50;99.90
37906;DHT22;23739;51.448;6.674;2022-11-20T11:09:35;4.40;99.90
37906;DHT22;23739;51.448;6.674;2022-11-20T11:12:09;4.50;99.90
37906;DHT22;23739;51.448;6.674;2022-11-20T11:14:47;4.40;99.90
37906;DHT22;23739;51.448;6.674;2022-11-20T11:22:48;4.60;99.90
37906;DHT22;23739;51.448;6.674;2022-11-20T11:25:33;4.60;99.90
37906;DHT22;23739;51.448;6.674;2022-11-20T11:28:03;4.60;99.90
37906;DHT22;23739;51.448;6.674;2022-11-20T11:30:40;4.60;99.90
37906;DHT22;23739;51.448;6.674;2022-11-20T11:33:10;4.80;99.90
37906;DHT22;23739;51.448;6.674;2022-11-20T11:35:49;4.70;99.90
37906;DHT22;23739;51.448;6.674;2022-11-20T11:38:41;4.70;99.90
37906;DHT22;23739;51.448;6.674;2022-11-20T11:41:21;4.60;99.90
37906;DHT22;23739;51.448;6.674;2022-11-20T11:43:55;4.60;99.90
37906;DHT22;23739;51.448;6.674;2022-11-20T11:46:49;4.70;99.90
37906;DHT22;23739;51.448;6.674;2022-11-20T11:49:18;4.80;99.90
37906;DHT22;23739;51.448;6.674;2022-11-20T11:57:10;4.70;99.90
37906;DHT22;23739;51.448;6.674;2022-11-20T12:00:08;4.70;99.90
37906;DHT22;23739;51.448;6.674;2022-11-20T12:07:53;4.80;99.90
37906;DHT22;23739;51.448;6.674;2022-11-20T12:10:45;4.70;99.90
37906;DHT22;23739;51.448;6.674;2022-11-20T12:15:45;4.90;99.90
37906;DHT22;23739;51.448;6.674;2022-11-20T12:18:18;5.00;99.90
37906;DHT22;23739;51.448;6.674;2022-11-20T12:24:10;5.00;99.90
37906;DHT22;23739;51.448;6.674;2022-11-20T12:32:33;5.30;99.90
37906;DHT22;23739;51.448;6.674;2022-11-20T12:43:46;5.30;99.90
37906;DHT22;23739;51.448;6.674;2022-11-20T12:46:39;5.20;99.90
37906;DHT22;23739;51.448;6.674;2022-11-20T12:59:48;5.10;99.90
37906;DHT22;23739;51.448;6.674;2022-11-20T13:02:24;5.10;99.90
37906;DHT22;23739;51.448;6.674;2022-11-20T13:07:54;5.20;99.90
37906;DHT22;23739;51.448;6.674;2022-11-20T13:10:46;5.20;99.90
37906;DHT22;23739;51.448;6.674;2022-11-20T13:16:00;4.90;99.90
37906;DHT22;23739;51.448;6.674;2022-11-20T13:18:29;5.10;99.90
37906;DHT22;23739;51.448;6.674;2022-11-20T13:20:59;5.20;99.90
37906;DHT22;23739;51.448;6.674;2022-11-20T13:23:26;5.10;99.90
37906;DHT22;23739;51.448;6.674;2022-11-20T13:26:27;5.10;99.90
37906;DHT22;23739;51.448;6.674;2022-11-20T13:29:11;5.00;99.90
37906;DHT22;23739;51.448;6.674;2022-11-20T13:31:42;5.00;99.90
37906;DHT22;23739;51.448;6.674;2022-11-20T13:34:33;5.00;99.90
37906;DHT22;23739;51.448;6.674;2022-11-20T13:36:59;5.10;99.90
37906;DHT22;23739;51.448;6.674;2022-11-20T13:39:36;5.00;99.90
37906;DHT22;23739;51.448;6.674;2022-11-20T13:42:26;5.10;99.90
37906;DHT22;23739;51.448;6.674;2022-11-20T13:44:54;5.00;99.90
37906;DHT22;23739;51.448;6.674;2022-11-20T13:47:26;5.00;99.90
37906;DHT22;23739;51.448;6.674;2022-11-20T13:49:54;5.00;99.90
37906;DHT22;23739;51.448;6.674;2022-11-20T14:01:14;5.00;99.90
37906;DHT22;23739;51.448;6.674;2022-11-20T14:03:38;4.80;99.90
37906;DHT22;23739;51.448;6.674;2022-11-20T14:06:10;4.60;99.90
37906;DHT22;23739;51.448;6.674;2022-11-20T14:08:42;4.70;99.90
37906;DHT22;23739;51.448;6.674;2022-11-20T14:11:24;4.80;99.90
37906;DHT22;23739;51.448;6.674;2022-11-20T14:14:00;4.70;99.90
37906;DHT22;23739;51.448;6.674;2022-11-20T14:16:29;4.70;99.90
37906;DHT22;23739;51.448;6.674;2022-11-20T14:18:57;4.70;99.90
37906;DHT22;23739;51.448;6.674;2022-11-20T14:21:28;4.80;99.90
37906;DHT22;23739;51.448;6.674;2022-11-20T14:24:11;4.90;99.90
37906;DHT22;23739;51.448;6.674;2022-11-20T14:26:41;4.90;99.90
37906;DHT22;23739;51.448;6.674;2022-11-20T14:29:37;4.90;99.90
37906;DHT22;23739;51.448;6.674;2022-11-20T14:32:04;5.00;99.90
37906;DHT22;23739;51.448;6.674;2022-11-20T14:34:35;4.90;99.90
37906;DHT22;23739;51.448;6.674;2022-11-20T14:37:05;4.90;99.90
37906;DHT22;23739;51.448;6.674;2022-11-20T14:39:37;5.00;99.90
37906;DHT22;23739;51.448;6.674;2022-11-20T14:42:18;5.00;99.90
37906;DHT22;23739;51.448;6.674;2022-11-20T14:44:44;4.90;99.90
37906;DHT22;23739;51.448;6.674;2022-11-20T14:47:12;4.90;99.90
37906;DHT22;23739;51.448;6.674;2022-11-20T14:49:38;4.90;99.90
37906;DHT22;23739;51.448;6.674;2022-11-20T14:54:48;4.90;99.90
37906;DHT22;23739;51.448;6.674;2022-11-20T14:57:23;4.90;99.90
37906;DHT22;23739;51.448;6.674;2022-11-20T14:59:49;4.90;99.90
37906;DHT22;23739;51.448;6.674;2022-11-20T15:02:15;5.00;99.90
37906;DHT22;23739;51.448;6.674;2022-11-20T15:04:56;4.90;99.90
37906;DHT22;23739;51.448;6.674;2022-11-20T15:07:44;4.90;99.90
37906;DHT22;23739;51.448;6.674;2022-11-20T15:12:53;4.90;99.90
37906;DHT22;23739;51.448;6.674;2022-11-20T15:15:47;4.80;99.90
37906;DHT22;23739;51.448;6.674;2022-11-20T15:18:15;4.80;99.90
37906;DHT22;23739;51.448;6.674;2022-11-20T15:20:42;4.80;99.90
37906;DHT22;23739;51.448;6.674;2022-11-20T15:23:14;4.90;99.90
37906;DHT22;23739;51.448;6.674;2022-11-20T15:25:40;4.80;99.90
37906;DHT22;23739;51.448;6.674;2022-11-20T15:31:03;4.80;99.90
37906;DHT22;23739;51.448;6.674;2022-11-20T15:33:30;4.80;99.90
37906;DHT22;23739;51.448;6.674;2022-11-20T15:35:56;4.80;99.90
37906;DHT22;23739;51.448;6.674;2022-11-20T15:38:22;4.80;99.90
37906;DHT22;23739;51.448;6.674;2022-11-20T15:40:48;4.80;99.90
37906;DHT22;23739;51.448;6.674;2022-11-20T15:43:14;4.80;99.90
37906;DHT22;23739;51.448;6.674;2022-11-20T15:45:45;4.80;99.90
37906;DHT22;23739;51.448;6.674;2022-11-20T15:48:21;4.90;99.90
37906;DHT22;23739;51.448;6.674;2022-11-20T15:50:56;4.80;99.90
37906;DHT22;23739;51.448;6.674;2022-11-20T15:53:23;4.80;99.90
37906;DHT22;23739;51.448;6.674;2022-11-20T15:55:49;4.80;99.90
37906;DHT22;23739;51.448;6.674;2022-11-20T15:58:15;4.80;99.90
37906;DHT22;23739;51.448;6.674;2022-11-20T16:00:44;4.80;99.90
37906;DHT22;23739;51.448;6.674;2022-11-20T16:03:14;4.80;99.90
37906;DHT22;23739;51.448;6.674;2022-11-20T16:05:40;4.80;99.90
37906;DHT22;23739;51.448;6.674;2022-11-20T16:08:06;4.80;99.90
37906;DHT22;23739;51.448;6.674;2022-11-20T16:10:32;4.80;99.90
37906;DHT22;23739;51.448;6.674;2022-11-20T16:12:58;4.80;99.90
37906;DHT22;23739;51.448;6.674;2022-11-20T16:15:45;4.80;99.90
37906;DHT22;23739;51.448;6.674;2022-11-20T16:18:18;4.80;99.90
37906;DHT22;23739;51.448;6.674;2022-11-20T16:20:47;4.80;99.90
37906;DHT22;23739;51.448;6.674;2022-11-20T16:23:13;4.90;99.90
37906;DHT22;23739;51.448;6.674;2022-11-20T16:25:39;4.80;99.90
37906;DHT22;23739;51.448;6.674;2022-11-20T16:28:05;4.90;99.90
37906;DHT22;23739;51.448;6.674;2022-11-20T16:30:32;4.80;99.90
37906;DHT22;23739;51.448;6.674;2022-11-20T16:32:59;4.80;99.90
37906;DHT22;23739;51.448;6.674;2022-11-20T16:35:29;4.80;99.90
37906;DHT22;23739;51.448;6.674;2022-11-20T16:37:56;4.90;99.90
37906;DHT22;23739;51.448;6.674;2022-11-20T16:40:23;4.90;99.90
37906;DHT22;23739;51.448;6.674;2022-11-20T16:42:49;4.90;99.90
37906;DHT22;23739;51.448;6.674;2022-11-20T16:45:16;4.90;99.90
37906;DHT22;23739;51.448;6.674;2022-11-20T16:47:41;4.90;99.90
37906;DHT22;23739;51.448;6.674;2022-11-20T16:50:08;5.00;99.90
37906;DHT22;23739;51.448;6.674;2022-11-20T16:52:34;5.00;99.90
37906;DHT22;23739;51.448;6.674;2022-11-20T16:55:00;5.00;99.90
37906;DHT22;23739;51.448;6.674;2022-11-20T16:57:29;5.00;99.90
37906;DHT22;23739;51.448;6.674;2022-11-20T16:59:56;5.00;99.90
37906;DHT22;23739;51.448;6.674;2022-11-20T17:02:22;5.00;99.90
37906;DHT22;23739;51.448;6.674;2022-11-20T17:04:47;5.10;99.90
37906;DHT22;23739;51.448;6.674;2022-11-20T17:07:13;5.00;99.90
37906;DHT22;23739;51.448;6.674;2022-11-20T17:09:39;5.10;99.90
37906;DHT22;23739;51.448;6.674;2022-11-20T17:12:05;5.10;99.90
37906;DHT22;23739;51.448;6.674;2022-11-20T17:14:31;5.10;99.90
37906;DHT22;23739;51.448;6.674;2022-11-20T17:16:57;5.10;99.90
37906;DHT22;23739;51.448;6.674;2022-11-20T17:19:23;5.10;99.90
37906;DHT22;23739;51.448;6.674;2022-11-20T17:21:49;5.10;99.90
37906;DHT22;23739;51.448;6.674;2022-11-20T17:24:15;5.10;99.90
37906;DHT22;23739;51.448;6.674;2022-11-20T17:26:42;5.20;99.90
37906;DHT22;23739;51.448;6.674;2022-11-20T17:29:18;5.20;99.90
37906;DHT22;23739;51.448;6.674;2022-11-20T17:31:49;5.20;99.90
37906;DHT22;23739;51.448;6.674;2022-11-20T17:34:15;5.20;99.90
37906;DHT22;23739;51.448;6.674;2022-11-20T17:36:42;5.20;99.90
37906;DHT22;23739;51.448;6.674;2022-11-20T17:39:13;5.30;99.90
37906;DHT22;23739;51.448;6.674;2022-11-20T17:41:39;5.30;99.90
37906;DHT22;23739;51.448;6.674;2022-11-20T17:44:05;5.30;99.90
37906;DHT22;23739;51.448;6.674;2022-11-20T17:46:32;5.30;99.90
37906;DHT22;23739;51.448;6.674;2022-11-20T17:48:58;5.30;99.90
37906;DHT22;23739;51.448;6.674;2022-11-20T17:51:29;5.30;99.90
37906;DHT22;23739;51.448;6.674;2022-11-20T17:54:00;5.30;99.90
37906;DHT22;23739;51.448;6.674;2022-11-20T17:56:33;5.40;99.90
37906;DHT22;23739;51.448;6.674;2022-11-20T17:59:18;5.40;99.90
37906;DHT22;23739;51.448;6.674;2022-11-20T18:01:44;5.40;99.90
37906;DHT22;23739;51.448;6.674;2022-11-20T18:04:10;5.50;99.90
37906;DHT22;23739;51.448;6.674;2022-11-20T18:06:37;5.50;99.90
37906;DHT22;23739;51.448;6.674;2022-11-20T18:09:04;5.50;99.90
37906;DHT22;23739;51.448;6.674;2022-11-20T18:11:32;5.60;99.90
37906;DHT22;23739;51.448;6.674;2022-11-20T18:14:00;5.60;99.90
37906;DHT22;23739;51.448;6.674;2022-11-20T18:16:46;5.60;99.90
37906;DHT22;23739;51.448;6.674;2022-11-20T18:19:14;5.70;99.90
37906;DHT22;23739;51.448;6.674;2022-11-20T18:21:41;5.80;99.90